Latest Weather Observations for Sydney Olympic Park

IDN60801

Issued at 1:33 pm EST Wednesday 29 June 2016 (issued every 30 minutes, with the page automatically refreshed every 10 minutes)

About weather observations | Map of weather stations | Latest weather observations for NSW | Other Formats
Station Details ID: 066212 Name: SYDNEY OLYMPIC PARK AWS (ARCHERY CENTRE) Lat: -33.83 Lon: 151.07 Height: 4.0 m
Data from the previous 72 hours. | See also: Recent months at Sydney Olympic Park
Date/Time
EST
Temp
°C
App
Temp
°C
Dew
Point
°C
Rel
Hum
%
Delta-T
°C
Wind Press
QNH
hPa
Press
MSL
hPa
Rain since
9am
mm
Dir  Spd
km/h
Gust
km/h
Spd
kts
Gust
kts
29/01:30pm 17.8 15.6 6.0 46 5.8 NW 7 11 4 6 - - 0.0
29/01:00pm 17.6 15.7 6.5 48 5.5 WNW 6 11 3 6 - - 0.0
29/12:30pm 16.0 13.1 4.7 47 5.3 NW 9 13 5 7 - - 0.0
29/12:00pm 15.7 13.1 5.9 52 4.7 NW 9 15 5 8 - - 0.0
29/11:30am 14.3 11.4 4.9 53 4.4 NW 9 15 5 8 - - 0.0
29/11:00am 13.7 10.4 4.6 54 4.2 NW 11 17 6 9 - - 0.0
29/10:30am 12.7 9.5 5.1 60 3.5 NW 11 17 6 9 - - 0.0
29/10:00am 11.4 7.7 4.6 63 3.1 WNW 13 22 7 12 - - 0.0
29/09:30am 10.3 6.6 4.2 66 2.7 NW 13 20 7 11 - - 0.0
29/09:00am 9.1 5.3 3.9 70 2.3 WNW 13 19 7 10 - - 0.0
29/08:30am 7.8 4.9 4.6 80 1.4 WNW 9 13 5 7 - - 0.0
29/08:00am 5.2 2.7 4.6 96 0.3 WNW 7 13 4 7 - - 0.0
29/07:30am 3.6 2.0 2.7 94 0.4 CALM 0 0 0 0 - - 0.0
29/07:00am 3.7 1.1 3.0 95 0.3 NW 6 7 3 4 - - 0.0
29/06:30am 3.6 1.2 2.4 92 0.5 WNW 4 7 2 4 - - 0.0
29/06:00am 4.0 1.7 2.8 92 0.5 WNW 4 7 2 4 - - 0.0
29/05:30am 4.3 2.4 2.8 90 0.6 WNW 2 7 1 4 - - 0.0
29/05:00am 4.6 1.8 3.4 92 0.5 NW 7 11 4 6 - - 0.0
29/04:30am 4.4 1.8 3.1 91 0.5 WNW 6 9 3 5 - - 0.0
29/04:00am 5.0 3.2 3.5 90 0.6 WNW 2 6 1 3 - - 0.0
29/03:30am 4.9 3.1 3.6 91 0.5 WNW 2 7 1 4 - - 0.0
29/03:00am 5.0 3.6 3.5 90 0.6 CALM 0 0 0 0 - - 0.0
29/02:30am 5.0 2.9 3.7 91 0.5 NW 4 7 2 4 - - 0.0
29/02:00am 5.0 2.5 3.8 92 0.5 WNW 6 9 3 5 - - 0.0
29/01:30am 5.5 3.1 4.2 91 0.6 WNW 6 9 3 5 - - 0.0
29/01:00am 5.4 2.9 4.5 94 0.4 WNW 7 9 4 5 - - 0.0
29/12:30am 4.9 1.9 4.0 94 0.4 NW 9 13 5 7 - - 0.0
29/12:00am 4.8 2.1 3.9 94 0.4 NW 7 9 4 5 - - 0.0
 
Date/Time
EST
Temp
°C
App
Temp
°C
Dew
Point
°C
Rel
Hum
%
Delta-T
°C
Wind Press
QNH
hPa
Press
MSL
hPa
Rain since
9am
mm
Dir  Spd
km/h
Gust
km/h
Spd
kts
Gust
kts
28/11:30pm 5.3 2.9 4.4 94 0.4 WNW 6 9 3 5 - - 0.0
28/11:00pm 5.3 2.9 4.3 93 0.4 NW 6 9 3 5 - - 0.0
28/10:30pm 5.4 3.0 4.1 91 0.5 NW 6 9 3 5 - - 0.0
28/10:00pm 5.8 4.5 4.1 89 0.7 CALM 0 0 0 0 - - 0.0
28/09:30pm 6.3 5.1 4.6 89 0.7 CALM 0 0 0 0 - - 0.0
28/09:00pm 6.9 4.6 4.9 87 0.9 WSW 6 9 3 5 - - 0.0
28/08:30pm 6.6 5.5 5.2 91 0.6 CALM 0 0 0 0 - - 0.0
28/08:00pm 6.9 5.8 5.2 89 0.7 CALM 0 0 0 0 - - 0.0
28/07:30pm 7.4 6.4 5.4 87 0.9 CALM 0 0 0 0 - - 0.0
28/07:00pm 8.1 7.0 5.2 82 1.3 CALM 0 0 0 0 - - 0.0
28/06:30pm 9.0 7.8 4.8 75 1.9 CALM 0 0 0 0 - - 0.0
28/06:00pm 10.3 9.2 4.9 69 2.4 CALM 0 0 0 0 - - 0.0
28/05:30pm 12.7 10.5 3.6 54 4.1 W 4 11 2 6 - - 0.0
28/05:00pm 13.6 10.9 3.7 51 4.5 W 7 13 4 7 - - 0.0
28/04:30pm 15.1 12.1 4.2 48 5.0 W 9 20 5 11 - - 0.0
28/04:00pm 16.1 12.9 5.1 48 5.2 WNW 11 20 6 11 - - 0.0
28/03:30pm 16.2 12.9 4.3 45 5.6 SW 11 22 6 12 - - 0.0
28/03:00pm 16.4 13.1 4.8 46 5.5 WSW 11 19 6 10 - - 0.0
28/02:30pm 16.6 13.4 4.9 46 5.6 WSW 11 19 6 10 - - 0.0
28/02:00pm 16.1 12.3 3.9 44 5.6 SW 13 20 7 11 - - 0.0
28/01:30pm 15.7 11.4 3.2 43 5.7 SW 15 22 8 12 - - 0.0
28/01:00pm 15.7 12.3 4.1 46 5.4 SW 11 19 6 10 - - 0.0
28/12:30pm 15.6 11.8 3.7 45 5.5 SW 13 24 7 13 - - 0.0
28/12:00pm 15.4 12.1 4.8 49 5.0 WSW 11 24 6 13 - - 0.0
28/11:30am 14.6 10.8 3.7 48 5.0 WSW 13 24 7 13 - - 0.0
28/11:00am 14.1 10.3 3.8 50 4.7 SW 13 20 7 11 - - 0.0
28/10:30am 13.1 8.4 3.2 51 4.4 WSW 17 28 9 15 - - 0.0
28/10:00am 12.1 7.5 3.6 56 3.8 WSW 17 30 9 16 - - 0.0
28/09:30am 11.2 7.2 3.0 57 3.6 WSW 13 28 7 15 - - 0.0
28/09:00am 10.1 5.8 3.2 62 3.0 WSW 15 28 8 15 - - 0.8
28/08:30am 9.2 5.2 2.8 64 2.7 W 13 24 7 13 - - 0.8
28/08:00am 8.1 5.2 2.6 68 2.3 W 7 11 4 6 - - 0.8
28/07:30am 7.5 4.7 2.2 69 2.2 W 6 13 3 7 - - 0.8
28/07:00am 7.8 4.5 2.3 68 2.3 W 9 15 5 8 - - 0.8
28/06:30am 7.7 4.7 2.2 68 2.3 W 7 13 4 7 - - 0.8
28/06:00am 7.8 4.5 2.7 70 2.1 WNW 9 20 5 11 - - 0.8
28/05:30am 8.2 4.5 2.2 66 2.5 WNW 11 19 6 10 - - 0.8
28/05:00am 8.1 4.4 2.4 67 2.4 WNW 11 17 6 9 - - 0.8
28/04:30am 8.1 4.8 2.4 67 2.4 WNW 9 19 5 10 - - 0.8
28/04:00am 8.0 4.3 2.5 68 2.3 WNW 11 15 6 8 - - 0.8
28/03:30am 7.7 4.4 2.4 69 2.2 WNW 9 15 5 8 - - 0.8
28/03:00am 7.8 4.1 2.3 68 2.3 WNW 11 15 6 8 - - 0.8
28/02:30am 8.3 4.6 2.3 66 2.5 WNW 11 17 6 9 - - 0.8
28/02:00am 8.6 4.9 2.4 65 2.6 WNW 11 19 6 10 - - 0.8
28/01:30am 8.9 5.2 2.3 63 2.8 W 11 19 6 10 - - 0.8
28/01:00am 9.1 5.4 2.4 63 2.8 W 11 20 6 11 - - 0.8
28/12:30am 9.5 5.5 2.6 62 2.9 W 13 20 7 11 - - 0.8
28/12:00am 10.0 5.6 2.8 61 3.1 W 15 28 8 15 - - 0.8
 
Date/Time
EST
Temp
°C
App
Temp
°C
Dew
Point
°C
Rel
Hum
%
Delta-T
°C
Wind Press
QNH
hPa
Press
MSL
hPa
Rain since
9am
mm
Dir  Spd
km/h
Gust
km/h
Spd
kts
Gust
kts
27/11:30pm 10.1 6.2 3.6 64 2.8 W 13 24 7 13 - - 0.8
27/11:00pm 10.1 6.7 4.0 66 2.7 W 11 17 6 9 - - 0.8
27/10:30pm 10.1 6.7 3.8 65 2.8 W 11 17 6 9 - - 0.8
27/10:00pm 10.0 7.4 4.2 67 2.6 W 7 13 4 7 - - 0.8
27/09:30pm 9.8 6.8 4.2 68 2.5 W 9 17 5 9 - - 0.8
27/09:00pm 9.8 6.9 4.4 69 2.4 WSW 9 15 5 8 - - 0.8
27/08:30pm 10.3 7.3 4.2 66 2.7 W 9 17 5 9 - - 0.4
27/08:00pm 10.7 7.2 3.3 60 3.2 W 11 20 6 11 - - 0.4
27/07:30pm 10.6 7.2 3.9 63 3.0 W 11 19 6 10 - - 0.4
27/07:00pm 10.1 7.3 5.1 71 2.3 WNW 9 13 5 7 - - 0.4
27/06:30pm 10.7 7.4 4.4 65 2.8 W 11 19 6 10 - - 0.4
27/06:00pm 10.8 7.5 4.3 64 2.9 W 11 20 6 11 - - 0.4
27/05:30pm 10.3 7.9 5.3 71 2.3 W 7 13 4 7 - - 0.4
27/05:00pm 10.5 8.3 5.3 70 2.4 WSW 6 9 3 5 - - 0.4
27/04:30pm 11.0 8.1 4.9 66 2.8 WSW 9 19 5 10 - - 0.2
27/04:00pm 11.2 7.7 5.3 67 2.7 WSW 13 22 7 12 - - 0.2
27/03:30pm 11.5 8.6 6.4 71 2.4 W 11 24 6 13 - - 0.2
27/03:00pm 11.4 8.5 6.7 73 2.2 WSW 11 17 6 9 - - 0.2
27/02:30pm 11.9 8.9 6.0 67 2.8 SW 11 20 6 11 - - 0.2
27/02:00pm 11.7 9.4 5.8 67 2.7 WSW 7 13 4 7 - - 0.2
27/01:30pm 11.5 8.8 5.8 68 2.6 WNW 9 17 5 9 - - 0.2
27/01:00pm 11.5 8.2 6.2 70 2.5 WNW 13 20 7 11 - - 0.2
27/12:30pm 10.6 7.1 5.6 71 2.3 WNW 13 22 7 12 - - 0.2
27/12:00pm 10.0 7.8 6.3 78 1.7 W 7 11 4 6 - - 0.2
27/11:30am 9.7 7.1 6.1 78 1.7 W 9 15 5 8 - - 0.0
27/11:00am 9.8 6.9 6.3 79 1.6 W 11 19 6 10 - - 0.0
27/10:30am 9.4 5.9 5.4 76 1.8 W 13 20 7 11 - - 0.0
27/10:00am 10.1 7.1 5.9 75 1.9 WNW 11 17 6 9 - - 0.0
27/09:30am 9.4 6.4 6.1 80 1.5 WNW 11 15 6 8 - - 0.0
27/09:00am 9.0 5.2 5.9 81 1.4 WNW 15 22 8 12 - - 0.2
27/08:30am 9.0 5.6 5.9 81 1.4 WNW 13 20 7 11 - - 0.2
27/08:00am 9.0 5.7 6.3 83 1.2 WNW 13 20 7 11 - - 0.2
27/07:30am 8.5 5.5 6.1 85 1.1 WNW 11 15 6 8 - - 0.2
27/07:00am 8.4 5.9 6.5 88 0.9 NW 9 11 5 6 - - 0.0
27/06:30am 8.3 7.4 5.9 85 1.1 CALM 0 0 0 0 - - 0.0
27/06:00am 8.5 6.2 5.8 83 1.2 WNW 7 11 4 6 - - 0.0
27/05:30am 8.2 5.8 5.3 82 1.3 NW 7 9 4 5 - - 0.0
27/05:00am 8.4 5.9 5.0 79 1.5 NW 7 13 4 7 - - 0.0
27/04:30am 8.4 5.7 5.5 82 1.3 NW 9 15 5 8 - - 0.0
27/04:00am 7.9 6.6 5.9 87 0.9 NW 2 9 1 5 - - 0.0
27/03:30am 8.0 6.6 5.3 83 1.2 WNW 2 6 1 3 - - 0.0
27/03:00am 8.0 4.9 5.5 84 1.1 N 11 15 6 8 - - 0.0
27/02:30am 8.1 7.1 5.6 84 1.1 CALM 0 0 0 0 - - 0.0
27/02:00am 8.0 6.8 6.3 89 0.8 WNW 2 7 1 4 - - 0.0
27/01:30am 7.9 5.7 5.4 84 1.1 NW 6 7 3 4 - - 0.0
27/01:00am 8.0 5.7 5.5 84 1.1 WNW 7 9 4 5 - - 0.0
27/12:30am 8.4 6.3 5.9 84 1.1 NW 6 7 3 4 - - 0.0
27/12:00am 8.1 6.2 6.7 91 0.6 NW 6 11 3 6 - - 0.0
 
Date/Time
EST
Temp
°C
App
Temp
°C
Dew
Point
°C
Rel
Hum
%
Delta-T
°C
Wind Press
QNH
hPa
Press
MSL
hPa
Rain since
9am
mm
Dir  Spd
km/h
Gust
km/h
Spd
kts
Gust
kts
26/11:30pm 7.8 6.5 6.1 89 0.8 NW 2 7 1 4 - - 0.0
26/11:00pm 7.9 7.2 7.0 94 0.4 CALM 0 0 0 0 - - 0.0
26/10:30pm 7.6 6.4 6.5 93 0.5 NW 2 6 1 3 - - 0.0
26/10:00pm 7.7 6.9 6.5 92 0.5 CALM 0 0 0 0 - - 0.0
26/09:30pm 8.1 7.3 6.7 91 0.6 CALM 0 0 0 0 - - 0.0
26/09:00pm 8.2 7.4 6.7 90 0.7 CALM 0 0 0 0 - - 0.0
26/08:30pm 8.1 7.3 6.6 90 0.7 CALM 0 0 0 0 - - 0.0
26/08:00pm 8.2 6.9 6.0 86 1.0 N 2 6 1 3 - - 0.0
26/07:30pm 8.6 7.9 7.1 90 0.7 CALM 0 0 0 0 - - 0.0
26/07:00pm 8.6 7.8 6.4 86 1.0 CALM 0 0 0 0 - - 0.0
26/06:30pm 9.1 8.4 7.1 87 0.9 CALM 0 0 0 0 - - 0.0
26/06:00pm 9.3 8.5 6.4 82 1.3 CALM 0 0 0 0 - - 0.0
26/05:30pm 9.9 9.0 6.1 77 1.8 CALM 0 0 0 0 - - 0.0
26/05:00pm 10.9 10.3 7.4 79 1.7 CALM 0 0 0 0 - - 0.0
26/04:30pm 11.8 11.0 6.3 69 2.6 CALM 0 0 0 0 - - 0.0
26/04:00pm 13.9 13.1 6.5 61 3.6 CALM 0 0 0 0 - - 0.0
26/03:30pm 13.1 10.6 4.5 56 3.9 NW 7 9 4 5 - - 0.0
26/03:00pm 14.3 12.5 5.4 55 4.2 NW 4 7 2 4 - - 0.0
26/02:30pm 13.9 11.4 4.5 53 4.3 NW 7 11 4 6 - - 0.0
26/02:00pm 15.2 12.4 3.4 45 5.4 NW 7 11 4 6 - - 0.0

Other Formats:

Comma delimited format used in spreadsheet applications
http://www.bom.gov.au/fwo/IDN60801/IDN60801.95765.axf

JavaScript Object Notation format (JSON) in row-major order
http://www.bom.gov.au/fwo/IDN60801/IDN60801.95765.json